Time;durP1;ratioP1;P1;durP2;ratioP2;P2;SDS_P1;SDS_P2;PMS_P1;PMS_P2;Temp;Humidity;BMP_temperature;BMP_pressure;BME280_temperature;BME280_humidity;BME280_pressure;Samples;Min_cycle;Max_cycle;Signal;HPM_P1;HPM_P2
2021/11/18 00:01:31;;;;;;;2.80;1.15;;;19.00;59.70;;;;;;5050396;28;20084;-52
2021/11/18 00:04:07;;;;;;;5.45;1.15;;;19.10;59.70;;;;;;5054447;28;20074;-60
2021/11/18 00:06:34;;;;;;;11.45;1.42;;;19.00;59.60;;;;;;5042980;28;20794;-56
2021/11/18 00:09:03;;;;;;;3.92;0.70;;;19.00;59.50;;;;;;5054196;28;20051;-60
2021/11/18 00:11:31;;;;;;;5.10;0.60;;;19.10;59.60;;;;;;5048953;28;20057;-54
2021/11/18 00:13:59;;;;;;;7.60;0.80;;;19.10;59.60;;;;;;5047848;28;20422;-56
2021/11/18 00:16:26;;;;;;;6.22;1.30;;;19.10;59.60;;;;;;5046730;28;20053;-47
2021/11/18 00:18:53;;;;;;;3.88;1.23;;;19.10;59.50;;;;;;5043875;28;20048;-54
2021/11/18 00:21:23;;;;;;;5.05;1.10;;;19.10;59.50;;;;;;5054465;28;20094;-49
2021/11/18 00:23:53;;;;;;;6.82;0.95;;;19.10;59.60;;;;;;5053053;28;20411;-56
2021/11/18 00:26:22;;;;;;;5.28;0.70;;;19.10;59.60;;;;;;5059720;28;20044;-55
2021/11/18 00:28:50;;;;;;;8.15;1.85;;;19.10;59.50;;;;;;5061414;28;20440;-56
2021/11/18 00:31:19;;;;;;;3.60;1.45;;;19.10;59.50;;;;;;5066477;28;20051;-60
2021/11/18 00:33:47;;;;;;;4.95;0.95;;;19.20;59.50;;;;;;5080516;28;20045;-52
2021/11/18 00:36:15;;;;;;;4.85;1.13;;;19.10;59.30;;;;;;5078755;28;20040;-54
2021/11/18 00:38:44;;;;;;;5.70;0.93;;;19.10;59.20;;;;;;5067659;28;20127;-54
2021/11/18 00:41:13;;;;;;;3.83;0.77;;;19.10;59.10;;;;;;5067051;28;20131;-53
2021/11/18 00:43:42;;;;;;;6.18;0.90;;;19.10;59.00;;;;;;5066431;28;20037;-52
2021/11/18 00:46:09;;;;;;;4.85;0.57;;;19.10;58.90;;;;;;5050495;28;20123;-53
2021/11/18 00:48:36;;;;;;;3.53;0.93;;;19.10;58.80;;;;;;5067229;28;20055;-53
2021/11/18 00:51:05;;;;;;;4.95;2.25;;;19.10;58.70;;;;;;5079773;28;20048;-53
2021/11/18 00:53:33;;;;;;;12.55;1.20;;;19.10;58.70;;;;;;5060329;28;20043;-54
2021/11/18 00:56:00;;;;;;;16.73;2.05;;;19.10;58.70;;;;;;5066910;28;20055;-56
2021/11/18 00:58:27;;;;;;;17.75;2.13;;;19.10;58.80;;;;;;5049533;28;20042;-56
2021/11/18 01:00:56;;;;;;;8.27;1.77;;;19.10;58.70;;;;;;5085116;28;20036;-56
2021/11/18 01:03:26;;;;;;;16.70;2.28;;;19.00;58.60;;;;;;5065441;28;20045;-55
2021/11/18 01:05:55;;;;;;;38.78;3.40;;;19.00;58.60;;;;;;5077511;28;20156;-55
2021/11/18 01:08:23;;;;;;;20.63;1.92;;;19.00;58.70;;;;;;5052829;28;20048;-54
2021/11/18 01:10:53;;;;;;;18.75;2.50;;;19.00;58.60;;;;;;5060627;28;20088;-54
2021/11/18 01:13:23;;;;;;;16.17;2.03;;;19.00;58.60;;;;;;5051358;28;20032;-57
2021/11/18 01:15:50;;;;;;;23.20;1.48;;;19.00;58.60;;;;;;5067250;28;20044;-54
2021/11/18 01:18:22;;;;;;;22.17;2.78;;;19.00;58.50;;;;;;5052071;28;20067;-55
2021/11/18 01:20:55;;;;;;;8.70;1.67;;;19.00;58.50;;;;;;5053837;28;20032;-59
2021/11/18 01:23:25;;;;;;;11.43;1.00;;;19.00;58.50;;;;;;5064640;28;20082;-57
2021/11/18 01:25:53;;;;;;;15.27;2.40;;;19.00;58.50;;;;;;5049766;28;20052;-56
2021/11/18 01:28:24;;;;;;;10.95;1.48;;;19.00;58.50;;;;;;5066102;28;20060;-55
2021/11/18 01:30:51;;;;;;;7.68;1.33;;;19.00;58.50;;;;;;5068141;28;21257;-55
2021/11/18 01:33:24;;;;;;;11.00;1.50;;;19.00;58.40;;;;;;5068214;28;20124;-58
2021/11/18 01:35:52;;;;;;;11.50;1.42;;;19.00;58.40;;;;;;5068530;28;20052;-57
2021/11/18 01:38:21;;;;;;;5.50;0.52;;;19.00;58.40;;;;;;5037158;28;20118;-56
2021/11/18 01:40:51;;;;;;;8.77;1.52;;;18.90;58.30;;;;;;5043251;28;20040;-56
2021/11/18 01:43:38;;;;;;;4.53;1.00;;;19.00;58.40;;;;;;5049647;28;20046;-56
2021/11/18 01:46:08;;;;;;;9.40;1.80;;;18.90;58.30;;;;;;5074284;28;20308;-57
2021/11/18 01:48:36;;;;;;;4.53;1.10;;;18.90;58.30;;;;;;5084389;28;20078;-56
2021/11/18 01:51:05;;;;;;;4.82;0.77;;;18.90;58.30;;;;;;5066736;28;20046;-55
2021/11/18 01:53:38;;;;;;;5.50;0.77;;;18.90;58.30;;;;;;5053759;28;20144;-55
2021/11/18 01:56:08;;;;;;;6.38;1.58;;;18.90;58.30;;;;;;5089156;28;20121;-56
2021/11/18 01:58:36;;;;;;;2.55;0.90;;;18.90;58.30;;;;;;5063080;28;20032;-51
2021/11/18 02:01:13;;;;;;;3.70;0.38;;;18.90;58.30;;;;;;5050727;28;20052;-50
2021/11/18 02:03:41;;;;;;;7.97;1.27;;;18.90;58.30;;;;;;5055011;28;20131;-53
2021/11/18 02:06:27;;;;;;;3.85;0.60;;;18.90;58.20;;;;;;5054150;28;20051;-55
2021/11/18 02:08:54;;;;;;;8.50;1.60;;;18.80;58.20;;;;;;5068956;28;20339;-58
2021/11/18 02:11:34;;;;;;;5.68;1.23;;;18.80;58.20;;;;;;5058791;28;20571;-52
2021/11/18 02:14:05;;;;;;;2.33;0.40;;;18.80;58.20;;;;;;5054578;28;20641;-58
2021/11/18 02:16:33;;;;;;;2.47;0.43;;;18.80;58.20;;;;;;5060292;28;20527;-55
2021/11/18 02:19:03;;;;;;;2.55;0.50;;;18.80;58.20;;;;;;5051257;28;20039;-55
2021/11/18 02:21:32;;;;;;;3.00;0.40;;;18.80;58.20;;;;;;5057169;28;20044;-56
2021/11/18 02:24:03;;;;;;;7.53;0.70;;;18.80;58.20;;;;;;5058239;28;20447;-58
2021/11/18 02:26:32;;;;;;;2.47;0.40;;;18.80;58.20;;;;;;5057954;28;20056;-56
2021/11/18 02:29:05;;;;;;;5.82;1.00;;;18.80;58.20;;;;;;5054792;28;20128;-55
2021/11/18 02:31:37;;;;;;;3.00;1.05;;;18.80;58.20;;;;;;5066155;28;20043;-55
2021/11/18 02:34:11;;;;;;;1.70;0.40;;;18.70;58.80;;;;;;5061795;28;20040;-55
2021/11/18 02:36:39;;;;;;;5.13;0.95;;;18.70;58.30;;;;;;5053407;28;20082;-55
2021/11/18 02:39:07;;;;;;;4.32;0.30;;;18.70;58.40;;;;;;5083517;28;20047;-54
2021/11/18 02:41:36;;;;;;;2.85;0.73;;;18.70;58.40;;;;;;5057810;28;20047;-57
2021/11/18 02:44:05;;;;;;;3.22;0.40;;;18.70;58.40;;;;;;5064408;28;20074;-56
2021/11/18 02:46:33;;;;;;;5.65;0.50;;;18.70;58.40;;;;;;5046895;28;20119;-54
2021/11/18 02:49:00;;;;;;;2.78;0.45;;;18.70;58.50;;;;;;5038897;28;20045;-56
2021/11/18 02:51:28;;;;;;;4.43;0.32;;;18.60;58.40;;;;;;5086633;28;20688;-58
2021/11/18 02:54:01;;;;;;;4.80;0.25;;;18.70;58.50;;;;;;5053595;28;20128;-57
2021/11/18 02:56:32;;;;;;;2.45;0.50;;;18.70;58.50;;;;;;5042583;28;20778;-55
2021/11/18 02:59:01;;;;;;;2.08;1.10;;;18.70;58.50;;;;;;5058873;28;20040;-57
2021/11/18 03:01:31;;;;;;;1.73;0.73;;;18.60;58.40;;;;;;5061644;28;20117;-55
2021/11/18 03:04:01;;;;;;;5.60;0.98;;;18.60;58.40;;;;;;5042283;28;20109;-57
2021/11/18 03:06:29;;;;;;;2.97;0.98;;;18.60;58.40;;;;;;5066192;28;20040;-56
2021/11/18 03:08:56;;;;;;;2.13;0.50;;;18.60;58.40;;;;;;5069959;28;20063;-57
2021/11/18 03:11:27;;;;;;;4.40;0.40;;;18.60;58.40;;;;;;5066409;28;20041;-55
2021/11/18 03:13:55;;;;;;;5.72;0.60;;;18.60;58.40;;;;;;5054009;28;20044;-57
2021/11/18 03:16:24;;;;;;;2.83;0.38;;;18.60;58.40;;;;;;5061559;28;20042;-57
2021/11/18 03:18:52;;;;;;;1.67;0.50;;;18.60;58.40;;;;;;5050792;28;20048;-57
2021/11/18 03:21:22;;;;;;;2.55;0.55;;;18.60;58.40;;;;;;5076041;28;20056;-57
2021/11/18 03:23:53;;;;;;;4.47;0.55;;;18.60;58.50;;;;;;5056488;28;20119;-57
2021/11/18 03:26:23;;;;;;;3.35;0.52;;;18.50;58.40;;;;;;5073643;28;20131;-57
2021/11/18 03:28:52;;;;;;;2.80;0.55;;;18.60;58.50;;;;;;5057748;28;20790;-55
2021/11/18 03:31:19;;;;;;;2.70;0.38;;;18.60;58.50;;;;;;5048790;28;20114;-56
2021/11/18 03:33:50;;;;;;;1.77;0.40;;;18.50;58.40;;;;;;5061564;28;20051;-57
2021/11/18 03:36:18;;;;;;;1.85;0.30;;;18.60;58.40;;;;;;5072806;28;20052;-57
2021/11/18 03:38:49;;;;;;;3.67;0.25;;;18.60;58.40;;;;;;5089718;28;20037;-56
2021/11/18 03:41:27;;;;;;;1.40;0.30;;;18.50;58.30;;;;;;5057724;28;20048;-57
2021/11/18 03:43:58;;;;;;;2.47;0.60;;;18.50;58.40;;;;;;5058793;28;20508;-57
2021/11/18 03:46:28;;;;;;;2.20;0.75;;;18.50;58.30;;;;;;5049796;28;20549;-55
2021/11/18 03:48:56;;;;;;;1.55;0.50;;;18.50;58.40;;;;;;5077747;28;20062;-58
2021/11/18 03:51:24;;;;;;;0.95;0.47;;;18.50;58.30;;;;;;5054293;28;20412;-57
2021/11/18 03:53:54;;;;;;;2.22;0.38;;;18.50;58.30;;;;;;5052202;28;20513;-57
2021/11/18 03:56:26;;;;;;;1.65;0.47;;;18.50;58.30;;;;;;5053412;28;20086;-56
2021/11/18 03:58:53;;;;;;;2.22;0.32;;;18.50;58.30;;;;;;5060815;28;20047;-56
2021/11/18 04:01:22;;;;;;;0.35;0.25;;;18.50;58.30;;;;;;5046221;28;20032;-57
2021/11/18 04:03:54;;;;;;;2.05;0.35;;;18.50;58.20;;;;;;5072076;28;20049;-57
2021/11/18 04:06:21;;;;;;;2.28;1.38;;;18.50;58.20;;;;;;5088528;28;20054;-55
2021/11/18 04:08:56;;;;;;;1.40;0.52;;;18.50;58.20;;;;;;5053877;28;20046;-56
2021/11/18 04:11:26;;;;;;;3.42;0.50;;;18.50;58.20;;;;;;5041812;28;20036;-56
2021/11/18 04:13:55;;;;;;;3.30;0.60;;;18.50;58.20;;;;;;5056744;28;20090;-53
2021/11/18 04:16:24;;;;;;;2.25;0.73;;;18.50;58.20;;;;;;5064173;28;20475;-56
2021/11/18 04:18:52;;;;;;;2.22;0.60;;;18.50;58.20;;;;;;5053281;28;20041;-54
2021/11/18 04:21:20;;;;;;;0.98;0.60;;;18.40;58.10;;;;;;5059591;28;20056;-59
2021/11/18 04:23:47;;;;;;;0.75;0.30;;;18.40;58.10;;;;;;5060001;28;20055;-57
2021/11/18 04:26:15;;;;;;;3.13;0.40;;;18.50;58.20;;;;;;5077218;28;20424;-59
2021/11/18 04:28:46;;;;;;;3.83;0.30;;;18.40;58.10;;;;;;5074204;28;20407;-58
2021/11/18 04:31:18;;;;;;;2.00;0.40;;;18.40;58.10;;;;;;5071304;28;20044;-59
2021/11/18 04:33:47;;;;;;;1.73;0.17;;;18.40;58.60;;;;;;5051167;28;20056;-58
2021/11/18 04:36:17;;;;;;;1.52;0.57;;;18.40;58.10;;;;;;5077742;28;20067;-56
2021/11/18 04:38:45;;;;;;;2.33;0.30;;;18.40;58.70;;;;;;5058324;28;20041;-58
2021/11/18 04:41:14;;;;;;;7.95;0.45;;;18.40;58.10;;;;;;5059942;28;20067;-53
2021/11/18 04:43:43;;;;;;;1.30;0.30;;;18.40;58.70;;;;;;5064408;28;20125;-57
2021/11/18 04:46:13;;;;;;;0.90;0.20;;;18.40;58.10;;;;;;5052769;28;20048;-54
2021/11/18 04:48:41;;;;;;;5.85;0.73;;;18.40;58.10;;;;;;5057140;28;20049;-56
2021/11/18 04:51:13;;;;;;;1.45;0.60;;;18.40;58.00;;;;;;5068120;28;20063;-57
2021/11/18 04:53:40;;;;;;;2.00;0.43;;;18.40;58.00;;;;;;5071142;28;20131;-55
2021/11/18 04:56:10;;;;;;;3.35;0.30;;;18.40;58.10;;;;;;5058758;28;20500;-57
2021/11/18 04:58:42;;;;;;;0.75;0.40;;;18.30;57.90;;;;;;5063954;28;20128;-58
2021/11/18 05:01:12;;;;;;;1.58;0.50;;;18.30;57.90;;;;;;5051015;28;20052;-58
2021/11/18 05:03:41;;;;;;;4.28;0.32;;;18.40;58.00;;;;;;5055080;28;20143;-58
2021/11/18 05:06:11;;;;;;;1.90;0.50;;;18.30;57.90;;;;;;5056197;28;20332;-58
2021/11/18 05:08:39;;;;;;;2.17;0.30;;;18.30;57.90;;;;;;5053529;28;20618;-58
2021/11/18 05:11:09;;;;;;;1.42;0.20;;;18.30;57.90;;;;;;5065083;28;20086;-57
2021/11/18 05:13:36;;;;;;;2.47;0.38;;;18.30;57.80;;;;;;5070575;28;20063;-58
2021/11/18 05:16:09;;;;;;;1.45;0.68;;;18.30;57.80;;;;;;5040961;28;20665;-58
2021/11/18 05:18:36;;;;;;;4.53;0.65;;;18.30;57.70;;;;;;5037612;28;20577;-58
2021/11/18 05:21:07;;;;;;;2.67;0.40;;;18.30;57.70;;;;;;5055626;28;20075;-58
2021/11/18 05:23:36;;;;;;;1.00;0.35;;;18.30;57.70;;;;;;5065297;28;20064;-57
2021/11/18 05:26:04;;;;;;;0.95;0.30;;;18.30;57.60;;;;;;5055626;28;20139;-57
2021/11/18 05:28:32;;;;;;;4.05;0.82;;;18.30;57.60;;;;;;5051816;28;20550;-57
2021/11/18 05:31:02;;;;;;;1.42;0.40;;;18.30;57.60;;;;;;5036492;28;20040;-58
2021/11/18 05:33:30;;;;;;;2.40;0.52;;;18.30;57.60;;;;;;5050352;28;20082;-59
2021/11/18 05:36:01;;;;;;;2.95;0.55;;;18.20;57.60;;;;;;5053223;28;20068;-59
2021/11/18 05:38:29;;;;;;;0.80;0.40;;;18.30;57.60;;;;;;5050869;28;20044;-58
2021/11/18 05:40:58;;;;;;;1.90;0.28;;;18.20;57.60;;;;;;5046519;28;20036;-56
2021/11/18 05:43:28;;;;;;;5.22;0.85;;;18.20;57.50;;;;;;5066577;28;20527;-57
2021/11/18 05:45:56;;;;;;;2.28;0.35;;;18.20;57.60;;;;;;5080906;28;20121;-55
2021/11/18 05:48:26;;;;;;;0.65;0.40;;;18.20;57.50;;;;;;5055133;28;20123;-57
2021/11/18 05:50:56;;;;;;;3.10;0.75;;;18.20;57.50;;;;;;5064107;28;20044;-56
2021/11/18 05:53:29;;;;;;;0.70;0.50;;;18.20;57.50;;;;;;5050088;28;20123;-58
2021/11/18 05:55:59;;;;;;;1.23;0.77;;;18.20;57.50;;;;;;5065634;28;20089;-57
2021/11/18 05:58:27;;;;;;;1.40;0.40;;;18.20;57.40;;;;;;5049859;28;20040;-57
2021/11/18 06:00:54;;;;;;;0.57;0.28;;;18.20;57.40;;;;;;5047419;28;20166;-57
2021/11/18 06:03:25;;;;;;;1.00;0.40;;;18.20;57.40;;;;;;5070687;28;20066;-55
2021/11/18 06:05:53;;;;;;;1.52;0.45;;;18.20;57.50;;;;;;5048492;28;20171;-54
2021/11/18 06:08:20;;;;;;;2.40;0.32;;;18.20;57.40;;;;;;5052344;28;20044;-56
2021/11/18 06:10:50;;;;;;;1.75;0.40;;;18.20;57.40;;;;;;5050602;28;20045;-56
2021/11/18 06:13:19;;;;;;;3.80;0.50;;;18.20;57.40;;;;;;5050284;28;20040;-57
2021/11/18 06:15:46;;;;;;;1.08;0.30;;;18.20;57.40;;;;;;5067117;28;20040;-57
2021/11/18 06:18:15;;;;;;;1.27;0.43;;;18.20;57.40;;;;;;5083973;28;20056;-58
2021/11/18 06:20:44;;;;;;;5.00;0.98;;;18.20;57.40;;;;;;5051234;28;20041;-57
2021/11/18 06:23:13;;;;;;;2.75;0.70;;;18.10;57.30;;;;;;5049585;28;20114;-57
2021/11/18 06:25:42;;;;;;;1.75;0.20;;;18.20;57.30;;;;;;5048154;28;20079;-57
2021/11/18 06:28:10;;;;;;;0.70;0.20;;;18.10;57.20;;;;;;5067093;28;20048;-56
2021/11/18 06:30:43;;;;;;;1.50;0.50;;;18.20;57.40;;;;;;5052294;28;20056;-55
2021/11/18 06:33:12;;;;;;;3.33;0.40;;;18.10;57.20;;;;;;5068658;28;20048;-58
2021/11/18 06:35:40;;;;;;;1.95;0.52;;;18.10;57.20;;;;;;5050599;28;20068;-57
2021/11/18 06:38:08;;;;;;;0.95;0.30;;;18.10;57.20;;;;;;5050034;28;20089;-56
2021/11/18 06:40:35;;;;;;;5.53;0.68;;;18.20;57.20;;;;;;5051640;28;20119;-58
2021/11/18 06:43:04;;;;;;;0.75;0.25;;;18.20;57.20;;;;;;5059396;28;20044;-58
2021/11/18 06:45:45;;;;;;;3.28;1.05;;;18.10;57.30;;;;;;5047316;28;20036;-59
2021/11/18 06:48:15;;;;;;;5.45;0.88;;;18.10;57.20;;;;;;5051365;28;20512;-57
2021/11/18 06:50:46;;;;;;;1.90;0.28;;;18.10;57.20;;;;;;5059325;28;20121;-60
2021/11/18 06:53:15;;;;;;;1.45;0.40;;;18.10;57.20;;;;;;5087896;28;20036;-57
2021/11/18 06:55:43;;;;;;;1.40;0.45;;;18.10;57.20;;;;;;5048311;28;20037;-58
2021/11/18 06:58:11;;;;;;;1.15;0.30;;;18.10;57.10;;;;;;5049054;28;20051;-56
2021/11/18 07:00:40;;;;;;;3.45;0.47;;;18.10;57.10;;;;;;5064544;28;20050;-60
2021/11/18 07:03:10;;;;;;;2.85;0.63;;;18.10;57.70;;;;;;5061014;28;20473;-60
2021/11/18 07:05:38;;;;;;;1.08;0.50;;;18.10;57.10;;;;;;5077194;28;20044;-59
2021/11/18 07:08:07;;;;;;;0.38;0.35;;;18.10;57.10;;;;;;5055986;28;20585;-57
2021/11/18 07:10:36;;;;;;;1.13;0.90;;;18.10;57.10;;;;;;5061890;28;20139;-58
2021/11/18 07:13:12;;;;;;;1.30;0.30;;;18.10;57.00;;;;;;5052706;28;20456;-59
2021/11/18 07:15:41;;;;;;;0.68;0.38;;;18.10;57.00;;;;;;5082442;28;20134;-57
2021/11/18 07:18:13;;;;;;;1.90;0.40;;;18.10;56.90;;;;;;5053464;28;20043;-57
2021/11/18 07:20:41;;;;;;;2.75;0.50;;;18.10;56.90;;;;;;5049879;28;20058;-57
2021/11/18 07:23:10;;;;;;;0.95;0.50;;;18.10;56.90;;;;;;5052155;28;20127;-54
2021/11/18 07:25:49;;;;;;;1.27;0.20;;;18.10;56.90;;;;;;5061052;28;20048;-57
2021/11/18 07:28:19;;;;;;;5.40;0.60;;;18.10;56.90;;;;;;5042796;28;20187;-57
2021/11/18 07:30:49;;;;;;;4.68;0.30;;;18.10;57.00;;;;;;5067623;28;20588;-54
2021/11/18 07:33:18;;;;;;;0.73;0.73;;;18.10;56.90;;;;;;5060270;28;20051;-57
2021/11/18 07:35:45;;;;;;;2.58;0.40;;;18.10;56.90;;;;;;5070581;28;20033;-53
2021/11/18 07:38:16;;;;;;;1.52;0.85;;;18.10;56.90;;;;;;5075082;28;20032;-55
2021/11/18 07:40:46;;;;;;;1.98;0.68;;;18.10;56.90;;;;;;5056535;28;20043;-57
2021/11/18 07:43:22;;;;;;;0.65;0.52;;;18.10;56.90;;;;;;5065206;28;20040;-55
2021/11/18 07:45:55;;;;;;;2.58;0.50;;;18.10;57.00;;;;;;5071982;28;20052;-56
2021/11/18 07:48:40;;;;;;;2.55;0.20;;;18.10;56.80;;;;;;5073690;28;20036;-58
2021/11/18 07:51:10;;;;;;;2.25;0.68;;;18.10;56.90;;;;;;5069985;28;20101;-58
2021/11/18 07:53:38;;;;;;;2.15;0.75;;;18.10;56.80;;;;;;5061898;28;20158;-57
2021/11/18 07:56:06;;;;;;;1.70;0.30;;;18.10;56.80;;;;;;5065477;28;20136;-58
2021/11/18 07:58:36;;;;;;;10.65;0.63;;;18.10;56.70;;;;;;5055353;28;20181;-58
2021/11/18 08:01:06;;;;;;;2.25;0.28;;;18.10;56.60;;;;;;5080837;28;20091;-58
2021/11/18 08:03:35;;;;;;;4.10;0.85;;;18.10;56.60;;;;;;5057115;28;20047;-57
2021/11/18 08:06:11;;;;;;;1.95;1.05;;;18.10;56.60;;;;;;5080033;28;20044;-59
2021/11/18 08:08:47;;;;;;;2.15;0.52;;;18.10;56.50;;;;;;5063345;28;20179;-57
2021/11/18 08:11:17;;;;;;;3.03;0.68;;;18.10;56.50;;;;;;5055712;28;20067;-59
2021/11/18 08:13:44;;;;;;;2.25;0.85;;;18.10;56.50;;;;;;5055388;28;20139;-59
2021/11/18 08:16:14;;;;;;;5.10;0.50;;;18.20;56.50;;;;;;5054404;28;20591;-55
2021/11/18 08:18:45;;;;;;;2.30;0.40;;;18.20;56.50;;;;;;5065854;28;20052;-56
2021/11/18 08:21:13;;;;;;;2.28;1.13;;;18.20;56.40;;;;;;5076420;28;20603;-58
2021/11/18 08:23:41;;;;;;;2.40;0.32;;;18.20;56.40;;;;;;5061135;28;20036;-57
2021/11/18 08:26:13;;;;;;;4.50;0.50;;;18.20;56.40;;;;;;5062179;28;20146;-59
2021/11/18 08:28:42;;;;;;;2.45;0.63;;;18.20;56.30;;;;;;5086398;28;20424;-59
2021/11/18 08:31:10;;;;;;;1.45;0.40;;;18.20;56.30;;;;;;5052233;28;20036;-58
2021/11/18 08:33:55;;;;;;;1.88;0.77;;;18.20;56.30;;;;;;5063888;28;20103;-58
2021/11/18 08:36:22;;;;;;;1.52;0.40;;;18.20;56.30;;;;;;5074285;28;20087;-63
2021/11/18 08:38:51;;;;;;;5.13;0.82;;;18.30;56.60;;;;;;5075138;28;20087;-63
2021/11/18 08:41:19;;;;;;;2.95;0.75;;;18.30;57.00;;;;;;5060295;28;20044;-62
2021/11/18 08:43:51;;;;;;;7.18;0.80;;;18.30;57.30;;;;;;5080083;28;20036;-60
2021/11/18 08:46:21;;;;;;;6.97;1.52;;;18.30;57.40;;;;;;5065181;28;20052;-60
2021/11/18 08:48:49;;;;;;;9.27;1.27;;;18.30;57.30;;;;;;5069385;28;20527;-59
2021/11/18 08:51:20;;;;;;;6.38;0.50;;;18.30;57.30;;;;;;5086367;28;20051;-60
2021/11/18 08:53:50;;;;;;;8.75;0.50;;;18.40;57.20;;;;;;5083480;28;20131;-60
2021/11/18 08:56:18;;;;;;;3.92;0.68;;;18.30;57.00;;;;;;5053134;28;20117;-60
2021/11/18 08:58:49;;;;;;;3.33;0.70;;;18.40;57.00;;;;;;5055962;28;20032;-59
2021/11/18 09:01:22;;;;;;;6.07;0.90;;;18.40;56.90;;;;;;5060957;28;20048;-58
2021/11/18 09:03:50;;;;;;;3.50;0.88;;;18.40;56.70;;;;;;5053505;28;20504;-59
2021/11/18 09:06:23;;;;;;;6.57;1.05;;;18.40;56.60;;;;;;5060799;28;20096;-60
2021/11/18 09:08:54;;;;;;;7.43;0.95;;;18.40;56.50;;;;;;5070402;28;20051;-60
2021/11/18 09:11:24;;;;;;;3.95;0.65;;;18.40;56.40;;;;;;5054605;28;20577;-60
2021/11/18 09:13:55;;;;;;;2.83;0.52;;;18.50;56.30;;;;;;5074170;28;20523;-59
2021/11/18 09:16:26;;;;;;;3.75;0.63;;;18.50;56.20;;;;;;5055470;28;20102;-60
2021/11/18 09:19:06;;;;;;;3.58;0.75;;;18.50;56.10;;;;;;5047270;28;20037;-57
2021/11/18 09:21:37;;;;;;;4.45;0.73;;;18.50;56.00;;;;;;5056544;28;20417;-60
2021/11/18 09:24:09;;;;;;;5.25;0.50;;;18.50;55.90;;;;;;5081451;28;20118;-59
2021/11/18 09:26:39;;;;;;;3.45;0.85;;;18.50;55.80;;;;;;5070553;28;20056;-58
2021/11/18 09:29:08;;;;;;;4.63;0.90;;;18.60;55.70;;;;;;5055201;28;20109;-58
2021/11/18 09:32:03;;;;;;;2.95;0.77;;;18.60;55.60;;;;;;5026227;28;20045;-59
2021/11/18 09:34:31;;;;;;;2.08;0.95;;;18.60;55.50;;;;;;5014632;28;20041;-60
2021/11/18 09:37:00;;;;;;;5.57;0.95;;;18.60;55.40;;;;;;5026591;28;20057;-59
2021/11/18 09:39:28;;;;;;;1.48;0.80;;;18.70;55.40;;;;;;5041306;28;20053;-60
2021/11/18 09:42:04;;;;;;;4.03;0.98;;;18.70;55.30;;;;;;5041306;28;20053;-59
2021/11/18 09:45:09;;;;;;;6.35;1.27;;;18.70;55.10;;;;;;5015431;28;20060;-59
2021/11/18 09:48:02;;;;;;;4.65;0.45;;;18.70;55.10;;;;;;5016199;28;20528;-59
2021/11/18 09:50:46;;;;;;;4.05;1.30;;;18.80;54.90;;;;;;5037452;28;20053;-59
2021/11/18 09:53:53;;;;;;;2.90;0.80;;;18.80;54.90;;;;;;5019065;28;20057;-59
2021/11/18 09:56:27;;;;;;;4.63;0.95;;;18.80;54.60;;;;;;5015392;28;20056;-59
2021/11/18 09:59:08;;;;;;;3.47;1.17;;;18.90;54.60;;;;;;5014485;28;20120;-58
2021/11/18 10:02:01;;;;;;;4.70;1.02;;;18.90;54.50;;;;;;5013010;28;20045;-60
2021/11/18 10:04:36;;;;;;;2.80;0.60;;;19.00;54.40;;;;;;5006905;28;20078;-58
2021/11/18 10:07:12;;;;;;;5.47;1.30;;;19.00;54.30;;;;;;5004622;28;20148;-58
2021/11/18 10:09:47;;;;;;;5.53;1.33;;;19.00;54.10;;;;;;5056629;28;20140;-59
2021/11/18 10:12:28;;;;;;;4.47;1.85;;;19.00;54.00;;;;;;5056407;28;20090;-59
2021/11/18 10:14:59;;;;;;;6.55;1.70;;;19.10;54.00;;;;;;5050437;28;20424;-60
2021/11/18 10:17:31;;;;;;;3.35;1.13;;;19.10;54.10;;;;;;5091213;28;20036;-58
2021/11/18 10:20:11;;;;;;;1.23;0.93;;;19.10;54.10;;;;;;5050998;28;20500;-61
2021/11/18 10:22:42;;;;;;;8.68;1.80;;;19.10;54.30;;;;;;5066642;28;20033;-62
2021/11/18 10:25:14;;;;;;;12.18;2.13;;;19.20;54.60;;;;;;5070982;28;20406;-62
2021/11/18 10:27:45;;;;;;;11.30;1.30;;;19.20;54.90;;;;;;5082802;28;20044;-59
2021/11/18 10:30:18;;;;;;;10.27;2.22;;;19.20;55.20;;;;;;5074482;28;20044;-59
2021/11/18 10:32:59;;;;;;;6.40;1.35;;;19.30;55.60;;;;;;5076129;28;20070;-60
2021/11/18 10:35:38;;;;;;;19.02;5.38;;;19.30;55.70;;;;;;5075520;28;20591;-60
2021/11/18 10:38:16;;;;;;;6.80;1.65;;;19.30;56.20;;;;;;5059175;28;20047;-61
2021/11/18 10:41:04;;;;;;;22.63;2.65;;;19.40;56.20;;;;;;5074451;28;20040;-57
2021/11/18 10:43:33;;;;;;;9.05;2.50;;;19.40;56.20;;;;;;5065223;28;20048;-56
2021/11/18 10:46:25;;;;;;;5.80;2.42;;;19.50;56.40;;;;;;5067924;28;20040;-59
2021/11/18 10:49:00;;;;;;;6.70;2.00;;;19.50;56.30;;;;;;5068985;28;20123;-60
2021/11/18 10:51:46;;;;;;;6.57;2.50;;;19.60;56.20;;;;;;5078626;28;20070;-59
2021/11/18 10:54:17;;;;;;;12.52;2.08;;;19.70;56.10;;;;;;5068795;28;20121;-58
2021/11/18 10:56:50;;;;;;;12.57;2.28;;;19.70;56.00;;;;;;5072636;28;20051;-51
2021/11/18 10:59:21;;;;;;;16.55;2.88;;;19.80;56.20;;;;;;5075065;28;20036;-49
2021/11/18 11:01:51;;;;;;;9.88;1.88;;;19.90;56.30;;;;;;5077846;28;20132;-47
2021/11/18 11:04:35;;;;;;;6.97;2.53;;;19.90;56.20;;;;;;5080476;28;20040;-52
2021/11/18 11:07:02;;;;;;;13.05;2.33;;;20.00;56.10;;;;;;5068588;28;20094;-50
2021/11/18 11:09:34;;;;;;;8.60;2.08;;;20.00;56.20;;;;;;5072054;28;20139;-47
2021/11/18 11:12:21;;;;;;;21.45;1.67;;;20.00;56.30;;;;;;5074450;28;20036;-51
2021/11/18 11:15:17;;;;;;;7.57;1.25;;;20.10;56.20;;;;;;5074633;28;20044;-45
2021/11/18 11:18:15;;;;;;;5.07;1.70;;;20.10;56.20;;;;;;5064618;28;20037;-49
2021/11/18 11:20:52;;;;;;;5.18;1.05;;;20.30;56.30;;;;;;5063573;28;20215;-51
2021/11/18 11:23:21;;;;;;;;;;;20.30;56.10;;;;;;5068456;28;20036;-46
2021/11/18 11:26:16;;;;;;;8.38;1.80;;;20.30;56.00;;;;;;5054956;28;19930;-47
2021/11/18 11:29:05;;;;;;;3.60;1.27;;;20.30;55.90;;;;;;5067901;28;20118;-50
2021/11/18 11:31:48;;;;;;;6.60;3.10;;;20.40;55.70;;;;;;5058893;28;20044;-51
2021/11/18 11:34:39;;;;;;;7.68;1.95;;;20.50;55.60;;;;;;5068929;28;20048;-48
2021/11/18 11:37:22;;;;;;;10.20;2.00;;;20.50;55.40;;;;;;5068561;28;20037;-47
2021/11/18 11:39:53;;;;;;;9.13;1.10;;;20.60;55.40;;;;;;5063131;28;20041;-51
2021/11/18 11:42:41;;;;;;;3.97;1.75;;;20.60;55.20;;;;;;5073858;28;20047;-48
2021/11/18 11:45:19;;;;;;;10.75;2.35;;;20.70;55.10;;;;;;5082051;28;20071;-48
2021/11/18 11:48:24;;;;;;;8.75;2.20;;;20.80;55.00;;;;;;5071312;28;20064;-47
2021/11/18 11:51:26;;;;;;;5.43;1.83;;;20.80;54.80;;;;;;5070069;28;20040;-47
2021/11/18 11:54:10;;;;;;;6.75;1.45;;;20.90;54.70;;;;;;5069129;28;20055;-52
2021/11/18 11:56:39;;;;;;;5.45;1.17;;;20.90;54.50;;;;;;5064911;28;20398;-51
2021/11/18 11:59:12;;;;;;;9.10;1.25;;;20.90;54.40;;;;;;5055801;28;20131;-52
2021/11/18 12:01:52;;;;;;;8.95;1.33;;;21.00;54.30;;;;;;5076923;28;20036;-52
2021/11/18 12:04:25;;;;;;;5.40;1.98;;;21.10;54.20;;;;;;5058301;28;20361;-49
2021/11/18 12:07:12;;;;;;;6.05;1.73;;;21.10;54.00;;;;;;5068409;28;20091;-45
2021/11/18 12:09:45;;;;;;;2.38;1.27;;;21.20;53.90;;;;;;5077586;28;20055;-51
2021/11/18 12:12:26;;;;;;;5.30;0.82;;;21.20;53.70;;;;;;5068644;28;20039;-49
2021/11/18 12:14:54;;;;;;;6.78;1.70;;;21.20;53.50;;;;;;5071587;28;20036;-51
2021/11/18 12:17:26;;;;;;;5.13;1.15;;;21.20;53.40;;;;;;5074047;28;20044;-50
2021/11/18 12:19:58;;;;;;;6.68;0.68;;;21.30;53.30;;;;;;5068948;28;20067;-50
2021/11/18 12:22:55;;;;;;;4.45;0.85;;;21.30;53.20;;;;;;5064931;28;20040;-49
2021/11/18 12:25:34;;;;;;;4.75;1.50;;;21.40;53.00;;;;;;5067820;28;20223;-48
2021/11/18 12:28:05;;;;;;;3.90;1.33;;;21.40;53.00;;;;;;5064915;28;20098;-48
2021/11/18 12:31:04;;;;;;;3.20;0.98;;;21.40;52.90;;;;;;5075229;28;20041;-47
2021/11/18 12:33:46;;;;;;;5.93;1.58;;;21.50;52.80;;;;;;5071769;28;20047;-54
2021/11/18 12:36:17;;;;;;;4.68;0.73;;;21.50;52.70;;;;;;5081269;28;20123;-46
2021/11/18 12:38:48;;;;;;;4.13;0.68;;;21.60;52.70;;;;;;5073138;28;20471;-46
2021/11/18 12:41:47;;;;;;;4.30;0.90;;;21.60;52.50;;;;;;5077779;28;20040;-52
2021/11/18 12:44:47;;;;;;;4.25;1.10;;;21.70;52.30;;;;;;5072884;28;20051;-48
2021/11/18 12:47:17;;;;;;;3.72;0.80;;;21.70;52.30;;;;;;5078147;28;20040;-55
2021/11/18 12:50:10;;;;;;;10.65;0.85;;;21.70;52.30;;;;;;5069980;28;20089;-59
2021/11/18 12:52:40;;;;;;;6.40;1.05;;;21.70;52.20;;;;;;5065989;28;20118;-56
2021/11/18 12:55:38;;;;;;;6.78;0.82;;;21.70;52.20;;;;;;5073132;28;20056;-58
2021/11/18 12:58:53;;;;;;;3.90;0.38;;;21.70;52.10;;;;;;5066326;28;20068;-59
2021/11/18 13:01:53;;;;;;;3.50;0.77;;;21.80;52.10;;;;;;5065822;28;20040;-59
2021/11/18 13:04:56;;;;;;;5.15;1.38;;;21.80;52.10;;;;;;5058411;28;20040;-60
2021/11/18 13:07:45;;;;;;;5.45;1.20;;;21.80;52.30;;;;;;5066922;28;20040;-59
2021/11/18 13:10:40;;;;;;;2.70;0.20;;;21.80;52.00;;;;;;5059884;28;20422;-58
2021/11/18 13:13:30;;;;;;;2.83;0.93;;;21.80;51.90;;;;;;5064471;28;20037;-57
2021/11/18 13:16:35;;;;;;;6.00;0.65;;;21.80;51.80;;;;;;5061944;28;20040;-59